Time;durP1;ratioP1;P1;durP2;ratioP2;P2;SDS_P1;SDS_P2;PMS_P1;PMS_P2;Temp;Humidity;BMP_temperature;BMP_pressure;BME280_temperature;BME280_humidity;BME280_pressure;Samples;Min_cycle;Max_cycle;Signal;HPM_P1;HPM_P2
2022/03/14 00:00:20;;;;;;;16.77;11.77;;;;;;;6.32;49.63;99683.53;5031129;28;20156;-65
2022/03/14 00:02:46;;;;;;;17.10;11.90;;;;;;;6.51;50.46;99701.34;5041810;28;20535;-65
2022/03/14 00:05:15;;;;;;;17.98;12.10;;;;;;;6.38;51.08;99697.00;5041889;28;20027;-66
2022/03/14 00:07:42;;;;;;;19.33;12.40;;;;;;;6.32;50.33;99706.78;5043714;28;20028;-65
2022/03/14 00:10:09;;;;;;;17.75;12.70;;;;;;;6.12;52.82;99713.13;5019288;28;20048;-65
2022/03/14 00:12:34;;;;;;;16.27;12.02;;;;;;;6.01;53.62;99704.34;5033880;28;20143;-65
2022/03/14 00:15:01;;;;;;;16.40;11.85;;;;;;;6.06;54.83;99713.47;5045549;28;20375;-65
2022/03/14 00:17:28;;;;;;;21.23;14.38;;;;;;;5.88;55.71;99714.50;5034170;28;20033;-66
2022/03/14 00:19:59;;;;;;;20.33;14.63;;;;;;;5.84;56.21;99715.59;5019905;28;20085;-65
2022/03/14 00:22:25;;;;;;;20.10;14.35;;;;;;;5.78;56.03;99716.75;5037777;28;20158;-65
2022/03/14 00:24:51;;;;;;;23.42;15.45;;;;;;;5.76;56.48;99723.78;5013729;28;20599;-65
2022/03/14 00:27:17;;;;;;;21.65;15.15;;;;;;;5.64;55.92;99698.66;5030824;28;20033;-65
2022/03/14 00:29:42;;;;;;;24.00;15.85;;;;;;;5.54;57.90;99670.78;5028688;28;20029;-65
2022/03/14 00:32:09;;;;;;;24.58;15.63;;;;;;;5.73;58.49;99718.78;5043847;28;20053;-65
2022/03/14 00:34:34;;;;;;;23.33;16.00;;;;;;;5.51;58.97;99719.16;5037760;28;20027;-65
2022/03/14 00:37:00;;;;;;;22.45;15.60;;;;;;;5.51;59.57;99734.63;5044787;28;20028;-65
2022/03/14 00:39:25;;;;;;;22.98;15.38;;;;;;;5.52;60.11;99744.03;5038730;28;20040;-66
2022/03/14 00:41:51;;;;;;;24.08;15.40;;;;;;;5.17;60.65;99706.38;5016507;28;20047;-65
2022/03/14 00:44:17;;;;;;;24.95;16.45;;;;;;;5.44;60.77;99765.09;5037093;28;20106;-65
2022/03/14 00:46:43;;;;;;;25.23;17.05;;;;;;;5.38;62.05;99757.69;5012633;28;20139;-66
2022/03/14 00:49:09;;;;;;;23.83;17.23;;;;;;;5.22;63.24;99739.66;5041797;28;20020;-65
2022/03/14 00:51:35;;;;;;;23.60;16.20;;;;;;;5.20;63.67;99746.63;5033403;28;20036;-65
2022/03/14 00:54:04;;;;;;;24.58;17.60;;;;;;;5.23;65.21;99743.06;5044266;28;20040;-65
2022/03/14 00:56:30;;;;;;;27.55;17.48;;;;;;;5.24;65.60;99757.59;5036829;28;20583;-65
2022/03/14 00:58:58;;;;;;;27.23;18.23;;;;;;;5.14;66.15;99762.44;5018682;28;20022;-65
2022/03/14 01:01:24;;;;;;;30.70;18.70;;;;;;;5.19;68.40;99766.41;5015998;28;20060;-65
2022/03/14 01:03:50;;;;;;;27.25;18.52;;;;;;;5.17;68.14;99751.97;5036759;28;20049;-66
2022/03/14 01:06:15;;;;;;;26.35;17.90;;;;;;;5.20;68.43;99764.66;5040344;28;20103;-65
2022/03/14 01:08:40;;;;;;;26.30;17.48;;;;;;;5.21;67.48;99774.06;5035605;28;20021;-66
2022/03/14 01:11:06;;;;;;;27.63;16.52;;;;;;;5.20;68.48;99769.81;5037186;28;20831;-65
2022/03/14 01:13:31;;;;;;;27.17;19.27;;;;;;;5.12;69.50;99767.66;5030307;28;20055;-65
2022/03/14 01:15:59;;;;;;;28.90;19.50;;;;;;;5.11;70.67;99767.72;5041769;28;20033;-65
2022/03/14 01:18:25;;;;;;;27.98;18.88;;;;;;;5.14;69.41;99783.06;5037998;28;20203;-65
2022/03/14 01:20:51;;;;;;;29.52;20.05;;;;;;;4.98;68.74;99771.00;5023545;28;20161;-66
2022/03/14 01:23:17;;;;;;;29.38;19.67;;;;;;;5.01;68.72;99764.81;5035995;28;20085;-65
2022/03/14 01:25:43;;;;;;;30.17;19.25;;;;;;;4.95;70.04;99767.75;5026182;28;20790;-65
2022/03/14 01:28:08;;;;;;;32.17;19.52;;;;;;;5.09;71.19;99788.47;5027375;28;20055;-65
2022/03/14 01:30:35;;;;;;;33.90;21.40;;;;;;;5.04;70.80;99790.44;5036938;28;20095;-65
2022/03/14 01:33:01;;;;;;;31.70;21.25;;;;;;;4.91;70.90;99782.53;5043800;28;20047;-65
2022/03/14 01:35:27;;;;;;;28.13;18.05;;;;;;;4.84;69.25;99770.00;5015844;28;20060;-65
2022/03/14 01:37:54;;;;;;;26.20;17.67;;;;;;;4.84;68.85;99778.59;5016365;28;20036;-65
2022/03/14 01:40:20;;;;;;;32.30;20.75;;;;;;;4.87;70.23;99790.47;5028715;28;20630;-65
2022/03/14 01:42:46;;;;;;;30.10;19.70;;;;;;;4.85;70.10;99795.72;5034148;28;20028;-65
2022/03/14 01:45:13;;;;;;;28.42;20.00;;;;;;;4.81;69.16;99787.31;5038111;28;20090;-65
2022/03/14 01:47:41;;;;;;;29.48;19.65;;;;;;;4.78;68.31;99795.22;5025306;28;20222;-65
2022/03/14 01:50:07;;;;;;;28.00;18.23;;;;;;;4.79;68.76;99798.63;5008460;28;20117;-65
2022/03/14 01:52:34;;;;;;;31.88;21.63;;;;;;;4.79;70.24;99796.03;5021851;28;20135;-65
2022/03/14 01:54:59;;;;;;;29.80;20.15;;;;;;;4.51;70.10;99747.66;5019278;28;20034;-65
2022/03/14 01:57:24;;;;;;;32.40;21.67;;;;;;;4.78;71.76;99781.47;4999026;28;20033;-65
2022/03/14 01:59:50;;;;;;;29.55;20.15;;;;;;;4.78;72.45;99787.50;5012737;28;20443;-66
2022/03/14 02:02:15;;;;;;;29.40;20.92;;;;;;;4.80;71.70;99782.22;5038206;28;20163;-65
2022/03/14 02:04:41;;;;;;;32.10;20.75;;;;;;;4.84;71.18;99781.19;5032243;28;20052;-65
2022/03/14 02:07:06;;;;;;;30.33;20.70;;;;;;;4.82;71.87;99759.81;5022073;28;20447;-65
2022/03/14 02:09:32;;;;;;;33.10;22.50;;;;;;;4.76;72.96;99757.53;5041185;28;20026;-65
2022/03/14 02:11:57;;;;;;;33.63;21.45;;;;;;;4.76;72.64;99771.28;5039277;28;20113;-65
2022/03/14 02:14:24;;;;;;;35.30;21.23;;;;;;;4.85;72.24;99774.28;5042779;28;20069;-65
2022/03/14 02:16:49;;;;;;;30.08;20.98;;;;;;;4.21;72.69;99683.94;5036517;28;20714;-66
2022/03/14 02:19:15;;;;;;;36.95;23.00;;;;;;;4.45;72.79;99724.81;5020967;28;20067;-66
2022/03/14 02:21:41;;;;;;;32.22;21.58;;;;;;;4.80;73.08;99770.19;5045972;28;20048;-64
2022/03/14 02:24:06;;;;;;;35.67;22.58;;;;;;;4.79;73.19;99778.00;5042351;28;20858;-65
2022/03/14 02:26:38;;;;;;;35.10;22.55;;;;;;;4.77;73.27;99772.09;5037297;28;20083;-65
2022/03/14 02:29:04;;;;;;;33.85;22.65;;;;;;;4.83;73.46;99779.50;5020326;28;20034;-65
2022/03/14 02:31:30;;;;;;;33.45;21.15;;;;;;;4.85;73.10;99775.09;5043964;28;20147;-65
2022/03/14 02:33:55;;;;;;;33.15;22.52;;;;;;;4.73;73.89;99757.72;5016070;28;20081;-65
2022/03/14 02:36:20;;;;;;;34.25;22.27;;;;;;;4.77;74.43;99775.50;5035391;28;20267;-65
2022/03/14 02:38:46;;;;;;;33.67;23.30;;;;;;;4.80;74.70;99771.91;5008470;28;20458;-65
2022/03/14 02:41:11;;;;;;;33.00;23.05;;;;;;;4.43;73.78;99720.56;5033707;28;20037;-65
2022/03/14 02:43:36;;;;;;;31.92;22.23;;;;;;;4.80;72.64;99779.66;5035587;28;20281;-65
2022/03/14 02:46:02;;;;;;;33.75;21.88;;;;;;;4.76;71.97;99766.13;5031442;28;20044;-65
2022/03/14 02:48:28;;;;;;;34.00;21.92;;;;;;;4.79;71.84;99773.66;5034139;28;20029;-65
2022/03/14 02:50:53;;;;;;;33.45;22.58;;;;;;;4.68;72.92;99775.16;5038654;28;20622;-65
2022/03/14 02:53:20;;;;;;;34.25;22.65;;;;;;;4.61;73.01;99760.00;5035926;28;20040;-65
2022/03/14 02:55:45;;;;;;;31.25;21.55;;;;;;;4.63;72.65;99765.88;5030054;28;20047;-64
2022/03/14 02:58:11;;;;;;;32.15;23.08;;;;;;;4.69;72.75;99767.34;5032644;28;20029;-65
2022/03/14 03:00:37;;;;;;;35.38;23.63;;;;;;;4.71;72.67;99773.25;5045027;28;20037;-65
2022/03/14 03:03:03;;;;;;;33.80;22.27;;;;;;;4.48;72.80;99717.75;5021089;28;20030;-65
2022/03/14 03:05:31;;;;;;;36.30;22.80;;;;;;;4.77;72.49;99770.34;5036655;28;20032;-65
2022/03/14 03:08:00;;;;;;;40.00;24.15;;;;;;;4.75;72.08;99769.59;5034574;28;20186;-66
2022/03/14 03:10:29;;;;;;;33.20;22.70;;;;;;;4.71;72.82;99764.66;5035196;28;20033;-65
2022/03/14 03:12:54;;;;;;;33.30;22.25;;;;;;;4.80;72.62;99774.50;5028403;28;20071;-64
2022/03/14 03:15:20;;;;;;;36.30;22.63;;;;;;;4.92;72.93;99780.78;5040704;28;20442;-65
2022/03/14 03:17:45;;;;;;;33.88;21.70;;;;;;;4.82;72.99;99775.28;5036735;28;20379;-65
2022/03/14 03:20:11;;;;;;;33.03;23.05;;;;;;;4.93;72.82;99782.44;5037651;28;20021;-65
2022/03/14 03:22:38;;;;;;;34.90;24.20;;;;;;;4.47;73.04;99730.69;5018395;28;20879;-65
2022/03/14 03:25:05;;;;;;;37.17;23.05;;;;;;;4.75;72.83;99794.53;5039500;28;20035;-65
2022/03/14 03:27:32;;;;;;;34.88;21.73;;;;;;;4.76;72.32;99796.19;5034936;28;20433;-65
2022/03/14 03:29:58;;;;;;;36.47;23.77;;;;;;;4.68;73.10;99803.50;5027412;28;20033;-65
2022/03/14 03:32:23;;;;;;;31.90;22.38;;;;;;;4.69;73.07;99800.84;5025071;28;20091;-65
2022/03/14 03:34:50;;;;;;;35.30;23.27;;;;;;;4.71;72.84;99811.03;5017554;28;20033;-65
2022/03/14 03:37:15;;;;;;;33.40;22.98;;;;;;;4.56;74.28;99812.66;5008464;28;20076;-64
2022/03/14 03:39:41;;;;;;;35.13;23.08;;;;;;;4.70;73.96;99817.94;5020589;28;20101;-65
2022/03/14 03:42:06;;;;;;;35.33;22.63;;;;;;;4.61;74.02;99806.34;5023345;28;20070;-65
2022/03/14 03:44:32;;;;;;;36.13;23.65;;;;;;;4.63;73.87;99821.75;5026531;28;20033;-66
2022/03/14 03:46:58;;;;;;;33.30;22.23;;;;;;;4.56;74.43;99804.94;5024419;28;20025;-65
2022/03/14 03:49:23;;;;;;;36.65;23.48;;;;;;;4.56;73.80;99821.25;5029141;28;20033;-65
2022/03/14 03:51:48;;;;;;;34.47;22.65;;;;;;;4.54;74.13;99811.91;5024871;28;20224;-65
2022/03/14 03:54:14;;;;;;;38.38;23.17;;;;;;;4.61;73.83;99808.13;5026233;28;20041;-65
2022/03/14 03:56:40;;;;;;;35.80;23.75;;;;;;;4.58;74.19;99823.72;5021690;28;20151;-65
2022/03/14 03:59:05;;;;;;;37.95;24.60;;;;;;;4.61;74.12;99823.56;5004906;28;20041;-65
2022/03/14 04:01:31;;;;;;;39.28;24.30;;;;;;;4.50;74.00;99797.53;5017252;28;20033;-65
2022/03/14 04:03:58;;;;;;;36.33;23.63;;;;;;;4.66;73.98;99834.47;5026129;28;20029;-65
2022/03/14 04:06:28;;;;;;;34.45;23.67;;;;;;;4.43;74.20;99802.13;5024195;28;20482;-65
2022/03/14 04:08:54;;;;;;;38.17;24.10;;;;;;;4.70;74.25;99846.28;5023631;28;20036;-65
2022/03/14 04:11:21;;;;;;;33.20;22.40;;;;;;;4.67;73.62;99864.47;5024965;28;20080;-65
2022/03/14 04:13:48;;;;;;;35.80;23.45;;;;;;;4.42;73.63;99823.66;5034470;28;20388;-65
2022/03/14 04:16:16;;;;;;;34.95;22.75;;;;;;;4.54;73.77;99842.81;5007431;28;20090;-65
2022/03/14 04:18:41;;;;;;;36.15;23.58;;;;;;;4.73;74.24;99859.03;5025711;28;20030;-65
2022/03/14 04:21:07;;;;;;;37.83;23.45;;;;;;;4.33;74.24;99808.69;5023068;28;20032;-65
2022/03/14 04:23:32;;;;;;;35.55;24.02;;;;;;;4.67;74.73;99864.47;5024429;28;20481;-65
2022/03/14 04:25:57;;;;;;;37.25;24.60;;;;;;;4.72;74.72;99867.66;5018473;28;20051;-65
2022/03/14 04:28:23;;;;;;;35.65;23.42;;;;;;;4.70;74.86;99856.59;5023788;28;20682;-65
2022/03/14 04:30:48;;;;;;;34.50;24.50;;;;;;;4.67;74.92;99869.63;5022844;28;20029;-65
2022/03/14 04:33:14;;;;;;;36.97;24.23;;;;;;;4.57;74.19;99838.34;5021517;28;20778;-64
2022/03/14 04:35:40;;;;;;;34.42;23.42;;;;;;;4.72;74.74;99864.25;5022579;28;20089;-65
2022/03/14 04:38:09;;;;;;;37.60;24.75;;;;;;;4.69;74.21;99865.25;5021222;28;20033;-65
2022/03/14 04:40:35;;;;;;;38.22;24.98;;;;;;;4.63;74.45;99871.53;5024210;28;20032;-65
2022/03/14 04:43:08;;;;;;;36.92;24.10;;;;;;;4.45;74.52;99831.22;5020706;28;20314;-65
2022/03/14 04:45:35;;;;;;;36.47;24.27;;;;;;;4.69;73.90;99862.69;5023944;28;20033;-64
2022/03/14 04:48:01;;;;;;;37.10;23.52;;;;;;;4.41;74.08;99814.25;5022596;28;20029;-65
2022/03/14 04:50:27;;;;;;;37.58;24.08;;;;;;;4.67;74.59;99873.94;5022140;28;20025;-65
2022/03/14 04:52:53;;;;;;;35.50;23.27;;;;;;;4.67;73.94;99871.38;5028834;28;20114;-65
2022/03/14 04:55:19;;;;;;;37.35;24.60;;;;;;;4.57;73.78;99865.84;5005448;28;20523;-65
2022/03/14 04:57:44;;;;;;;38.05;24.13;;;;;;;4.71;74.22;99888.34;5007085;28;20141;-65
2022/03/14 05:00:10;;;;;;;43.03;24.02;;;;;;;4.60;74.21;99868.28;5025246;28;20077;-65
2022/03/14 05:02:35;;;;;;;37.60;24.83;;;;;;;4.76;73.54;99882.09;5021110;28;20373;-65
2022/03/14 05:05:01;;;;;;;34.20;22.63;;;;;;;4.46;73.51;99835.47;5023628;28;20034;-65
2022/03/14 05:07:26;;;;;;;36.63;24.15;;;;;;;4.80;73.47;99882.72;5004890;28;20389;-64
2022/03/14 05:09:52;;;;;;;39.70;23.98;;;;;;;4.74;73.58;99888.19;5023423;28;20100;-65
2022/03/14 05:12:18;;;;;;;36.72;24.02;;;;;;;4.38;73.44;99833.28;5020014;28;20042;-66
2022/03/14 05:14:43;;;;;;;35.00;23.58;;;;;;;4.65;73.98;99884.34;5024326;28;20032;-65
2022/03/14 05:17:09;;;;;;;37.30;24.08;;;;;;;4.69;73.80;99891.03;5022038;28;20026;-65
2022/03/14 05:19:34;;;;;;;35.30;24.15;;;;;;;4.74;73.51;99883.03;5024837;28;20091;-65
2022/03/14 05:22:01;;;;;;;37.88;24.67;;;;;;;4.80;74.10;99904.19;5015797;28;20469;-65
2022/03/14 05:24:26;;;;;;;37.40;24.15;;;;;;;4.77;74.00;99904.34;5027340;28;20041;-65
2022/03/14 05:26:52;;;;;;;35.53;23.88;;;;;;;4.80;74.65;99898.19;5020641;28;20039;-64
2022/03/14 05:29:20;;;;;;;37.17;24.38;;;;;;;4.72;74.81;99906.31;5023844;28;20036;-66
2022/03/14 05:31:45;;;;;;;35.75;24.02;;;;;;;4.70;74.19;99897.81;5020305;28;20087;-65
2022/03/14 05:34:11;;;;;;;40.03;25.52;;;;;;;4.36;74.81;99853.13;5021002;28;20033;-64
2022/03/14 05:36:37;;;;;;;35.88;24.73;;;;;;;4.45;74.95;99864.69;5022483;28;20033;-64
2022/03/14 05:39:03;;;;;;;38.05;24.30;;;;;;;4.72;74.73;99915.78;5021950;28;20341;-65
2022/03/14 05:41:29;;;;;;;39.50;25.67;;;;;;;4.57;74.16;99878.75;5023439;28;20037;-65
2022/03/14 05:43:54;;;;;;;41.47;25.77;;;;;;;4.73;75.00;99907.16;5017247;28;20071;-65
2022/03/14 05:46:20;;;;;;;40.85;23.95;;;;;;;4.65;74.78;99902.38;5002692;28;20473;-65
2022/03/14 05:48:45;;;;;;;37.92;24.63;;;;;;;4.84;74.49;99914.34;5023644;28;20065;-66
2022/03/14 05:51:10;;;;;;;37.83;25.35;;;;;;;4.73;74.50;99909.75;5024196;28;20035;-64
2022/03/14 05:53:36;;;;;;;40.40;26.17;;;;;;;4.82;74.37;99910.13;5023109;28;20057;-65
2022/03/14 05:56:01;;;;;;;38.67;25.77;;;;;;;4.83;73.96;99916.09;5022117;28;20028;-65
2022/03/14 05:58:27;;;;;;;38.97;25.80;;;;;;;4.75;75.11;99911.31;5022700;28;20029;-65
2022/03/14 06:00:52;;;;;;;41.50;27.05;;;;;;;4.72;74.91;99910.63;5028310;28;20123;-65
2022/03/14 06:03:21;;;;;;;34.75;23.20;;;;;;;4.47;74.63;99868.03;5022178;28;20038;-65
2022/03/14 06:05:50;;;;;;;38.80;25.33;;;;;;;4.73;74.71;99905.41;5056403;28;20040;-65
2022/03/14 06:08:18;;;;;;;40.10;24.77;;;;;;;4.75;74.57;99911.31;5021756;28;20037;-65
2022/03/14 06:10:45;;;;;;;40.55;25.20;;;;;;;4.78;74.80;99918.91;5029434;28;20029;-65
2022/03/14 06:13:15;;;;;;;38.50;25.08;;;;;;;4.75;74.78;99913.91;5006253;28;20021;-65
2022/03/14 06:15:41;;;;;;;38.65;24.70;;;;;;;4.79;74.91;99920.56;5005870;28;20030;-66
2022/03/14 06:18:07;;;;;;;38.53;24.77;;;;;;;4.86;74.70;99936.56;5021996;28;20444;-65
2022/03/14 06:20:32;;;;;;;36.33;24.92;;;;;;;4.92;74.84;99935.44;5015567;28;20065;-65
2022/03/14 06:22:58;;;;;;;36.17;25.30;;;;;;;4.87;74.56;99940.78;5001925;28;20135;-65
2022/03/14 06:25:23;;;;;;;38.90;25.73;;;;;;;4.93;74.11;99950.00;4974261;28;20036;-65
2022/03/14 06:27:48;;;;;;;38.65;25.30;;;;;;;4.91;73.88;99955.22;5007757;28;20058;-65
2022/03/14 06:30:14;;;;;;;37.53;25.48;;;;;;;5.02;74.01;99965.00;5016697;28;20049;-64
2022/03/14 06:32:41;;;;;;;39.10;26.02;;;;;;;4.69;73.97;99909.06;5013453;28;20037;-66
2022/03/14 06:35:09;;;;;;;41.35;25.50;;;;;;;5.03;74.77;99958.91;5017615;28;20108;-65
2022/03/14 06:37:35;;;;;;;37.53;24.88;;;;;;;4.95;74.31;99954.16;5020841;28;20032;-65
2022/03/14 06:40:01;;;;;;;36.92;25.70;;;;;;;4.97;73.89;99951.50;5015122;28;20605;-64
2022/03/14 06:42:27;;;;;;;40.28;25.85;;;;;;;5.06;74.66;99951.03;5017474;28;20027;-64
2022/03/14 06:44:53;;;;;;;38.40;26.33;;;;;;;5.08;75.05;99972.41;5039308;28;20034;-65
2022/03/14 06:47:18;;;;;;;39.13;26.05;;;;;;;5.15;74.47;99972.97;5001286;28;20029;-64
2022/03/14 06:49:44;;;;;;;38.03;25.13;;;;;;;5.30;74.23;99994.56;5024339;28;20048;-65
2022/03/14 06:52:11;;;;;;;37.28;25.15;;;;;;;5.18;74.79;99963.31;5022870;28;20032;-65
2022/03/14 06:54:37;;;;;;;39.08;25.15;;;;;;;4.96;74.18;99939.50;5024239;28;20477;-65
2022/03/14 06:57:02;;;;;;;38.42;27.00;;;;;;;5.10;74.10;99986.06;5017007;28;20028;-65
2022/03/14 06:59:28;;;;;;;39.05;25.85;;;;;;;5.15;73.66;99984.09;5013562;28;20028;-65
2022/03/14 07:01:53;;;;;;;41.47;26.05;;;;;;;5.06;74.15;99976.00;5006789;28;20438;-64
2022/03/14 07:04:19;;;;;;;37.75;24.80;;;;;;;5.23;73.42;99985.47;5023368;28;20496;-66
2022/03/14 07:06:45;;;;;;;37.65;25.30;;;;;;;5.17;73.54;99984.03;5022926;28;20102;-66
2022/03/14 07:09:10;;;;;;;40.53;25.20;;;;;;;5.28;72.25;99996.38;5026501;28;20136;-66
2022/03/14 07:11:36;;;;;;;40.33;24.60;;;;;;;5.34;72.34;100006.38;5018207;28;20034;-65
2022/03/14 07:14:02;;;;;;;36.28;24.00;;;;;;;5.49;71.31;100004.75;5027373;28;20495;-65
2022/03/14 07:16:27;;;;;;;35.95;24.58;;;;;;;5.23;72.28;99963.06;5019821;28;20044;-65
2022/03/14 07:18:53;;;;;;;39.78;25.63;;;;;;;5.46;72.32;100004.91;5028161;28;20033;-66
2022/03/14 07:21:18;;;;;;;37.22;25.42;;;;;;;5.45;73.01;100004.09;5024903;28;20033;-65
2022/03/14 07:23:44;;;;;;;36.95;24.55;;;;;;;5.41;73.64;100012.91;5014693;28;20492;-65
2022/03/14 07:26:10;;;;;;;38.97;26.55;;;;;;;5.38;73.01;100010.47;5020632;28;20044;-65
2022/03/14 07:28:35;;;;;;;36.50;25.42;;;;;;;5.26;72.96;99970.66;5005507;28;20029;-64
2022/03/14 07:31:01;;;;;;;39.33;25.92;;;;;;;5.47;72.95;100015.16;5024999;28;20017;-65
2022/03/14 07:33:28;;;;;;;37.80;24.23;;;;;;;5.62;73.07;100020.47;5014497;28;20125;-65
2022/03/14 07:35:54;;;;;;;38.78;26.00;;;;;;;5.64;72.90;100019.47;5026343;28;20018;-65
2022/03/14 07:38:20;;;;;;;36.53;25.58;;;;;;;5.64;72.87;100034.09;5016351;28;20077;-65
2022/03/14 07:40:45;;;;;;;41.15;26.02;;;;;;;5.63;73.44;100032.47;5024480;28;20057;-65
2022/03/14 07:43:11;;;;;;;38.22;25.15;;;;;;;5.51;73.66;100032.19;5026015;28;20022;-65
2022/03/14 07:45:37;;;;;;;37.58;23.58;;;;;;;5.58;73.97;100024.94;5021206;28;20029;-66
2022/03/14 07:48:03;;;;;;;35.85;24.65;;;;;;;5.63;72.80;100029.88;5025824;28;20033;-65
2022/03/14 07:50:28;;;;;;;38.78;25.45;;;;;;;5.36;72.34;99989.06;5018121;28;20080;-66
2022/03/14 07:52:57;;;;;;;39.05;25.65;;;;;;;5.67;72.62;100028.81;5026350;28;20116;-65
2022/03/14 07:55:23;;;;;;;39.38;25.35;;;;;;;5.58;72.93;100019.78;5023944;28;20029;-65
2022/03/14 07:57:49;;;;;;;43.40;28.42;;;;;;;5.58;73.20;100028.38;5023875;28;20452;-64
2022/03/14 08:00:16;;;;;;;40.50;27.50;;;;;;;5.66;73.42;100032.28;5015876;28;20025;-65
2022/03/14 08:02:42;;;;;;;41.28;27.13;;;;;;;5.59;72.91;100026.63;5023452;28;20076;-65
2022/03/14 08:05:10;;;;;;;39.60;26.50;;;;;;;5.38;72.07;99984.66;5021127;28;20021;-65
2022/03/14 08:07:37;;;;;;;39.25;25.52;;;;;;;5.49;71.50;99990.13;5008032;28;20488;-64
2022/03/14 08:10:09;;;;;;;36.88;25.42;;;;;;;5.75;71.60;100048.16;5025280;28;20091;-64
2022/03/14 08:12:46;;;;;;;36.83;24.85;;;;;;;5.71;71.85;100035.47;5008368;28;20108;-65
2022/03/14 08:15:20;;;;;;;39.88;26.45;;;;;;;5.81;72.32;100053.91;5026380;28;20027;-65
2022/03/14 08:17:46;;;;;;;37.42;25.63;;;;;;;5.86;72.01;100060.50;5024374;28;20061;-64
2022/03/14 08:20:12;;;;;;;40.55;27.73;;;;;;;5.92;71.74;100062.75;5022549;28;20048;-65
2022/03/14 08:22:38;;;;;;;38.97;25.10;;;;;;;5.54;71.29;100008.78;5021360;28;20041;-65
2022/03/14 08:25:04;;;;;;;35.30;22.13;;;;;;;5.89;71.38;100062.09;5020335;28;20036;-64
2022/03/14 08:27:30;;;;;;;34.40;20.80;;;;;;;5.56;71.80;100001.78;5039467;28;20038;-64
2022/03/14 08:29:55;;;;;;;37.47;26.08;;;;;;;5.85;72.34;100066.56;5024000;28;20024;-64
2022/03/14 08:32:21;;;;;;;39.72;25.48;;;;;;;5.92;72.51;100073.09;5026057;28;20038;-65
2022/03/14 08:34:47;;;;;;;41.88;26.98;;;;;;;5.89;72.75;100067.25;5023631;28;20028;-64
2022/03/14 08:37:12;;;;;;;38.35;26.35;;;;;;;5.59;71.96;100026.63;5032741;28;20034;-65
2022/03/14 08:39:38;;;;;;;37.67;26.58;;;;;;;5.98;71.63;100079.72;5022244;28;20025;-64
2022/03/14 08:42:04;;;;;;;42.10;26.95;;;;;;;5.89;71.30;100073.22;5023062;28;20056;-64
2022/03/14 08:44:29;;;;;;;37.90;26.65;;;;;;;5.70;70.49;100041.56;5021998;28;20032;-65
2022/03/14 08:46:55;;;;;;;38.67;26.08;;;;;;;6.12;69.98;100094.50;5003400;28;20444;-65
2022/03/14 08:49:20;;;;;;;40.42;26.10;;;;;;;6.10;68.83;100083.41;5006462;28;20124;-65
2022/03/14 08:51:46;;;;;;;37.28;24.75;;;;;;;6.03;67.99;100077.72;5019251;28;20467;-65
2022/03/14 08:54:11;;;;;;;37.08;24.27;;;;;;;6.15;67.87;100097.75;5023572;28;20049;-64
2022/03/14 08:56:37;;;;;;;37.47;25.10;;;;;;;6.11;67.81;100092.81;5014505;28;20038;-64
2022/03/14 08:59:04;;;;;;;34.70;23.02;;;;;;;6.21;68.07;100081.09;5024053;28;20025;-65
2022/03/14 09:01:30;;;;;;;32.83;21.95;;;;;;;6.33;67.50;100087.34;5023075;28;20044;-64
2022/03/14 09:03:56;;;;;;;37.60;23.77;;;;;;;6.29;66.84;100091.84;5012251;28;20487;-64
2022/03/14 09:06:21;;;;;;;36.58;24.77;;;;;;;6.15;67.30;100068.50;5014850;28;20033;-65
2022/03/14 09:08:47;;;;;;;33.60;23.10;;;;;;;6.09;67.71;100040.41;5025511;28;20116;-64
2022/03/14 09:11:13;;;;;;;32.97;22.70;;;;;;;6.51;65.99;100086.38;5003154;28;20044;-64
2022/03/14 09:13:39;;;;;;;33.92;23.58;;;;;;;6.45;67.08;100091.88;5021112;28;20033;-65
2022/03/14 09:16:08;;;;;;;35.17;23.38;;;;;;;6.52;67.58;100084.63;5024384;28;20032;-65
2022/03/14 09:18:34;;;;;;;34.53;22.63;;;;;;;6.57;67.19;100085.22;5022056;28;20053;-65
2022/03/14 09:21:00;;;;;;;38.17;22.10;;;;;;;6.63;66.27;100091.81;5021810;28;20824;-65
2022/03/14 09:23:26;;;;;;;34.20;23.60;;;;;;;6.82;66.50;100097.63;5020938;28;20029;-64
2022/03/14 09:25:52;;;;;;;29.38;20.02;;;;;;;6.99;64.65;100093.28;5017268;28;20056;-64
2022/03/14 09:28:20;;;;;;;27.70;18.90;;;;;;;6.95;64.28;100091.78;5023566;28;20540;-64
2022/03/14 09:30:45;;;;;;;30.77;20.48;;;;;;;6.80;66.38;100091.72;5013829;28;20108;-64
2022/03/14 09:33:11;;;;;;;32.35;22.20;;;;;;;6.76;66.32;100090.22;5023404;28;20044;-64
2022/03/14 09:35:36;;;;;;;30.08;21.15;;;;;;;6.64;66.52;100057.28;5021503;28;20252;-64
2022/03/14 09:38:03;;;;;;;30.08;20.58;;;;;;;6.61;64.54;100041.94;5024237;28;20060;-65
2022/03/14 09:40:30;;;;;;;32.03;20.05;;;;;;;6.69;64.22;100053.50;5012735;28;20033;-65
2022/03/14 09:42:59;;;;;;;32.30;19.67;;;;;;;7.05;64.17;100098.94;5023305;28;20030;-64
2022/03/14 09:45:24;;;;;;;27.38;18.90;;;;;;;7.20;63.22;100094.66;5022635;28;20025;-65
2022/03/14 09:47:52;;;;;;;28.45;19.95;;;;;;;7.12;61.82;100055.47;5019391;28;20040;-65
2022/03/14 09:50:25;;;;;;;27.52;18.80;;;;;;;7.36;61.77;100093.81;5006890;28;20068;-64
2022/03/14 09:52:52;;;;;;;27.27;18.63;;;;;;;7.54;59.57;100094.47;5014822;28;20018;-65
2022/03/14 09:55:19;;;;;;;28.30;16.90;;;;;;;7.48;59.18;100090.47;5018832;28;20029;-65
2022/03/14 09:57:45;;;;;;;28.85;18.65;;;;;;;7.58;59.25;100091.63;5010151;28;20064;-65
2022/03/14 10:00:13;;;;;;;25.55;17.63;;;;;;;7.42;58.23;100057.22;5021581;28;20029;-65
2022/03/14 10:02:40;;;;;;;21.08;15.77;;;;;;;7.63;56.52;100087.03;5019094;28;20060;-65
2022/03/14 10:05:08;;;;;;;23.83;15.73;;;;;;;7.74;57.15;100082.94;5016705;28;20017;-65
2022/03/14 10:07:36;;;;;;;24.30;17.08;;;;;;;7.81;56.54;100076.47;5024615;28;20029;-65
2022/03/14 10:10:04;;;;;;;24.80;16.63;;;;;;;7.83;56.90;100079.81;5016610;28;20088;-65
2022/03/14 10:12:30;;;;;;;28.02;17.48;;;;;;;7.85;56.91;100078.00;5021665;28;20022;-66
2022/03/14 10:14:56;;;;;;;25.20;16.92;;;;;;;7.91;56.82;100087.16;5016028;28;20126;-65
2022/03/14 10:17:21;;;;;;;23.30;15.77;;;;;;;7.66;56.16;100050.56;5022309;28;20030;-64
2022/03/14 10:20:01;;;;;;;28.70;18.65;;;;;;;7.70;61.83;100072.78;5005844;28;20025;-65
2022/03/14 10:22:40;;;;;;;26.17;17.48;;;;;;;7.77;60.08;100075.84;5020749;28;20060;-65
2022/03/14 10:25:14;;;;;;;25.85;18.02;;;;;;;7.55;60.13;100027.09;5006294;28;20022;-65
2022/03/14 10:27:44;;;;;;;26.08;18.02;;;;;;;7.82;58.88;100073.81;5005061;28;20033;-65
2022/03/14 10:30:30;;;;;;;23.75;17.10;;;;;;;7.82;59.12;100066.03;5026992;28;20021;-64
2022/03/14 10:33:10;;;;;;;24.35;16.85;;;;;;;7.80;58.27;100065.31;5008395;28;20476;-64
2022/03/14 10:35:38;;;;;;;26.15;18.27;;;;;;;7.87;58.23;100050.25;5024952;28;20025;-65
2022/03/14 10:38:06;;;;;;;24.33;17.48;;;;;;;7.94;59.87;100061.91;5010952;28;20052;-65
2022/03/14 10:40:36;;;;;;;24.92;16.65;;;;;;;7.96;56.92;100061.78;5026630;28;20021;-65
2022/03/14 10:43:02;;;;;;;23.10;16.95;;;;;;;8.02;59.66;100059.66;5027022;28;20555;-65
2022/03/14 10:45:30;;;;;;;24.58;15.98;;;;;;;7.90;55.90;100047.44;5022694;28;20116;-65
2022/03/14 10:47:57;;;;;;;25.35;17.38;;;;;;;7.83;56.34;100047.00;5027006;28;20563;-65
2022/03/14 10:50:36;;;;;;;25.55;17.38;;;;;;;7.96;56.40;100046.25;5008448;28;20923;-65
2022/03/14 10:53:09;;;;;;;28.55;17.20;;;;;;;7.98;56.11;100040.06;5020380;28;20362;-64
2022/03/14 10:55:43;;;;;;;23.92;17.08;;;;;;;8.02;55.65;100026.00;5009734;28;20663;-65
2022/03/14 10:58:18;;;;;;;23.88;16.88;;;;;;;8.12;56.27;100033.19;5025252;28;20025;-65
2022/03/14 11:00:50;;;;;;;26.52;16.85;;;;;;;7.87;56.34;99986.31;5022560;28;20029;-65
2022/03/14 11:03:33;;;;;;;26.20;17.65;;;;;;;8.19;55.92;100030.13;5010901;28;20099;-64
2022/03/14 11:06:04;;;;;;;23.20;16.52;;;;;;;8.20;54.17;100018.84;5012819;28;20502;-64
2022/03/14 11:08:33;;;;;;;25.05;16.58;;;;;;;8.22;55.08;100009.22;5027487;28;20037;-64
2022/03/14 11:11:00;;;;;;;;;;;;;;;8.26;55.32;100010.69;5026556;28;20086;-64
2022/03/14 11:13:26;;;;;;;24.60;16.83;;;;;;;8.35;55.29;100016.22;5024894;28;20688;-65
2022/03/14 11:15:51;;;;;;;24.55;17.30;;;;;;;8.31;55.49;99996.63;5024462;28;20037;-65
2022/03/14 11:18:18;;;;;;;26.65;18.65;;;;;;;8.43;54.61;100009.69;5024703;28;20460;-64